sensor_id;sensor_type;location;lat;lon;timestamp;temperature;humidity
70695;DHT22;58269;52.246;21.104;2022-07-23T00:01:45;25.57;51.66
70695;DHT22;58269;52.246;21.104;2022-07-23T00:03:48;25.51;51.73
70695;DHT22;58269;52.246;21.104;2022-07-23T00:05:49;25.48;51.83
70695;DHT22;58269;52.246;21.104;2022-07-23T00:07:50;25.45;51.91
70695;DHT22;58269;52.246;21.104;2022-07-23T00:09:51;25.41;51.96
70695;DHT22;58269;52.246;21.104;2022-07-23T00:11:52;25.38;52.00
70695;DHT22;58269;52.246;21.104;2022-07-23T00:13:53;25.31;52.14
70695;DHT22;58269;52.246;21.104;2022-07-23T00:15:55;25.27;52.17
70695;DHT22;58269;52.246;21.104;2022-07-23T00:17:56;25.21;52.25
70695;DHT22;58269;52.246;21.104;2022-07-23T00:19:57;25.17;52.29
70695;DHT22;58269;52.246;21.104;2022-07-23T00:21:58;25.13;52.33
70695;DHT22;58269;52.246;21.104;2022-07-23T00:23:59;25.11;52.52
70695;DHT22;58269;52.246;21.104;2022-07-23T00:26:00;25.09;52.45
70695;DHT22;58269;52.246;21.104;2022-07-23T00:28:02;25.06;52.51
70695;DHT22;58269;52.246;21.104;2022-07-23T00:30:04;25.01;52.66
70695;DHT22;58269;52.246;21.104;2022-07-23T00:32:05;25.00;52.70
70695;DHT22;58269;52.246;21.104;2022-07-23T00:34:06;24.97;52.75
70695;DHT22;58269;52.246;21.104;2022-07-23T00:36:08;24.96;52.89
70695;DHT22;58269;52.246;21.104;2022-07-23T00:38:09;24.90;52.93
70695;DHT22;58269;52.246;21.104;2022-07-23T00:40:11;24.89;53.10
70695;DHT22;58269;52.246;21.104;2022-07-23T00:42:13;24.90;53.10
70695;DHT22;58269;52.246;21.104;2022-07-23T00:46:22;24.81;53.27
70695;DHT22;58269;52.246;21.104;2022-07-23T00:48:23;24.77;53.35
70695;DHT22;58269;52.246;21.104;2022-07-23T00:50:24;24.74;53.43
70695;DHT22;58269;52.246;21.104;2022-07-23T00:52:25;24.70;53.53
70695;DHT22;58269;52.246;21.104;2022-07-23T00:54:27;24.69;53.56
70695;DHT22;58269;52.246;21.104;2022-07-23T00:56:29;24.63;53.70
70695;DHT22;58269;52.246;21.104;2022-07-23T00:58:30;24.60;53.71
70695;DHT22;58269;52.246;21.104;2022-07-23T01:00:32;24.58;53.85
70695;DHT22;58269;52.246;21.104;2022-07-23T01:02:33;24.55;53.88
70695;DHT22;58269;52.246;21.104;2022-07-23T01:04:34;24.50;53.94
70695;DHT22;58269;52.246;21.104;2022-07-23T01:06:36;24.49;54.07
70695;DHT22;58269;52.246;21.104;2022-07-23T01:08:38;24.48;54.08
70695;DHT22;58269;52.246;21.104;2022-07-23T01:10:39;24.45;54.18
70695;DHT22;58269;52.246;21.104;2022-07-23T01:12:41;24.42;54.25
70695;DHT22;58269;52.246;21.104;2022-07-23T01:14:43;24.39;54.32
70695;DHT22;58269;52.246;21.104;2022-07-23T01:16:45;24.36;54.46
70695;DHT22;58269;52.246;21.104;2022-07-23T01:18:46;24.29;54.51
70695;DHT22;58269;52.246;21.104;2022-07-23T01:20:47;24.28;54.58
70695;DHT22;58269;52.246;21.104;2022-07-23T01:22:49;24.25;54.71
70695;DHT22;58269;52.246;21.104;2022-07-23T01:24:51;24.22;54.83
70695;DHT22;58269;52.246;21.104;2022-07-23T01:26:54;24.19;54.82
70695;DHT22;58269;52.246;21.104;2022-07-23T01:28:55;24.16;54.94
70695;DHT22;58269;52.246;21.104;2022-07-23T01:30:56;24.15;54.96
70695;DHT22;58269;52.246;21.104;2022-07-23T01:32:57;24.12;55.08
70695;DHT22;58269;52.246;21.104;2022-07-23T01:34:58;24.08;55.13
70695;DHT22;58269;52.246;21.104;2022-07-23T01:36:59;24.04;55.24
70695;DHT22;58269;52.246;21.104;2022-07-23T01:39:02;24.01;55.36
70695;DHT22;58269;52.246;21.104;2022-07-23T01:41:03;23.99;55.43
70695;DHT22;58269;52.246;21.104;2022-07-23T01:43:05;23.97;55.44
70695;DHT22;58269;52.246;21.104;2022-07-23T01:45:08;23.95;55.53
70695;DHT22;58269;52.246;21.104;2022-07-23T01:47:10;23.90;55.58
70695;DHT22;58269;52.246;21.104;2022-07-23T01:49:11;23.88;55.71
70695;DHT22;58269;52.246;21.104;2022-07-23T01:51:14;23.84;55.74
70695;DHT22;58269;52.246;21.104;2022-07-23T01:53:17;23.81;55.81
70695;DHT22;58269;52.246;21.104;2022-07-23T01:55:19;23.77;55.92
70695;DHT22;58269;52.246;21.104;2022-07-23T01:57:22;23.77;55.98
70695;DHT22;58269;52.246;21.104;2022-07-23T01:59:24;23.77;56.08
70695;DHT22;58269;52.246;21.104;2022-07-23T02:01:25;23.71;56.13
70695;DHT22;58269;52.246;21.104;2022-07-23T02:03:26;23.70;56.18
70695;DHT22;58269;52.246;21.104;2022-07-23T02:05:28;23.68;56.22
70695;DHT22;58269;52.246;21.104;2022-07-23T02:07:29;23.68;56.31
70695;DHT22;58269;52.246;21.104;2022-07-23T02:09:32;23.65;56.34
70695;DHT22;58269;52.246;21.104;2022-07-23T02:11:33;23.62;56.38
70695;DHT22;58269;52.246;21.104;2022-07-23T02:13:34;23.62;56.53
70695;DHT22;58269;52.246;21.104;2022-07-23T02:15:35;23.60;56.95
70695;DHT22;58269;52.246;21.104;2022-07-23T02:17:37;23.57;56.90
70695;DHT22;58269;52.246;21.104;2022-07-23T02:19:38;23.56;56.87
70695;DHT22;58269;52.246;21.104;2022-07-23T02:21:39;23.53;56.92
70695;DHT22;58269;52.246;21.104;2022-07-23T02:23:40;23.51;56.98
70695;DHT22;58269;52.246;21.104;2022-07-23T02:25:41;23.50;57.00
70695;DHT22;58269;52.246;21.104;2022-07-23T02:27:44;23.50;57.06
70695;DHT22;58269;52.246;21.104;2022-07-23T02:29:45;23.47;57.13
70695;DHT22;58269;52.246;21.104;2022-07-23T02:31:48;23.46;57.19
70695;DHT22;58269;52.246;21.104;2022-07-23T02:33:49;23.46;57.23
70695;DHT22;58269;52.246;21.104;2022-07-23T02:35:50;23.44;57.30
70695;DHT22;58269;52.246;21.104;2022-07-23T02:37:52;23.41;57.31
70695;DHT22;58269;52.246;21.104;2022-07-23T02:39:53;23.41;57.37
70695;DHT22;58269;52.246;21.104;2022-07-23T02:41:54;23.40;57.43
70695;DHT22;58269;52.246;21.104;2022-07-23T02:43:55;23.36;57.51
70695;DHT22;58269;52.246;21.104;2022-07-23T02:45:57;23.34;57.57
70695;DHT22;58269;52.246;21.104;2022-07-23T02:47:58;23.32;57.63
70695;DHT22;58269;52.246;21.104;2022-07-23T02:50:00;23.32;57.72
70695;DHT22;58269;52.246;21.104;2022-07-23T02:52:03;23.32;57.78
70695;DHT22;58269;52.246;21.104;2022-07-23T02:54:04;23.33;57.88
70695;DHT22;58269;52.246;21.104;2022-07-23T02:56:05;23.32;57.89
70695;DHT22;58269;52.246;21.104;2022-07-23T02:58:06;23.26;57.91
70695;DHT22;58269;52.246;21.104;2022-07-23T03:00:08;23.26;57.98
70695;DHT22;58269;52.246;21.104;2022-07-23T03:02:09;23.26;58.03
70695;DHT22;58269;52.246;21.104;2022-07-23T03:04:12;23.25;58.11
70695;DHT22;58269;52.246;21.104;2022-07-23T03:06:15;23.26;58.11
70695;DHT22;58269;52.246;21.104;2022-07-23T03:08:16;23.20;58.14
70695;DHT22;58269;52.246;21.104;2022-07-23T03:10:18;23.17;58.21
70695;DHT22;58269;52.246;21.104;2022-07-23T03:12:19;23.15;58.30
70695;DHT22;58269;52.246;21.104;2022-07-23T03:14:20;23.09;58.42
70695;DHT22;58269;52.246;21.104;2022-07-23T03:16:21;23.09;58.43
70695;DHT22;58269;52.246;21.104;2022-07-23T03:18:24;23.10;58.45
70695;DHT22;58269;52.246;21.104;2022-07-23T03:20:25;23.09;58.48
70695;DHT22;58269;52.246;21.104;2022-07-23T03:22:27;23.12;58.68
70695;DHT22;58269;52.246;21.104;2022-07-23T03:24:28;23.07;58.89
70695;DHT22;58269;52.246;21.104;2022-07-23T03:26:31;23.02;58.77
70695;DHT22;58269;52.246;21.104;2022-07-23T03:28:32;22.99;58.87
70695;DHT22;58269;52.246;21.104;2022-07-23T03:30:33;22.98;58.88
70695;DHT22;58269;52.246;21.104;2022-07-23T03:32:35;22.96;59.29
70695;DHT22;58269;52.246;21.104;2022-07-23T03:34:36;22.99;59.10
70695;DHT22;58269;52.246;21.104;2022-07-23T03:36:39;22.98;59.11
70695;DHT22;58269;52.246;21.104;2022-07-23T03:38:40;22.95;59.29
70695;DHT22;58269;52.246;21.104;2022-07-23T03:40:41;22.96;59.23
70695;DHT22;58269;52.246;21.104;2022-07-23T03:42:42;22.95;59.19
70695;DHT22;58269;52.246;21.104;2022-07-23T03:44:44;22.96;59.31
70695;DHT22;58269;52.246;21.104;2022-07-23T03:46:45;22.98;59.49
70695;DHT22;58269;52.246;21.104;2022-07-23T03:48:46;22.99;59.39
70695;DHT22;58269;52.246;21.104;2022-07-23T03:50:48;22.99;59.42
70695;DHT22;58269;52.246;21.104;2022-07-23T03:52:49;22.98;59.43
70695;DHT22;58269;52.246;21.104;2022-07-23T03:54:50;23.00;59.53
70695;DHT22;58269;52.246;21.104;2022-07-23T03:56:51;23.02;59.51
70695;DHT22;58269;52.246;21.104;2022-07-23T03:58:52;23.02;59.76
70695;DHT22;58269;52.246;21.104;2022-07-23T04:00:53;23.03;59.53
70695;DHT22;58269;52.246;21.104;2022-07-23T04:02:54;23.05;59.61
70695;DHT22;58269;52.246;21.104;2022-07-23T04:04:55;23.05;59.64
70695;DHT22;58269;52.246;21.104;2022-07-23T04:06:56;23.09;59.66
70695;DHT22;58269;52.246;21.104;2022-07-23T04:08:58;23.07;59.69
70695;DHT22;58269;52.246;21.104;2022-07-23T04:10:59;23.10;59.70
70695;DHT22;58269;52.246;21.104;2022-07-23T04:13:01;23.10;59.72
70695;DHT22;58269;52.246;21.104;2022-07-23T04:15:02;23.13;59.74
70695;DHT22;58269;52.246;21.104;2022-07-23T04:17:03;23.15;59.74
70695;DHT22;58269;52.246;21.104;2022-07-23T04:19:06;23.19;59.68
70695;DHT22;58269;52.246;21.104;2022-07-23T04:21:08;23.22;59.75
70695;DHT22;58269;52.246;21.104;2022-07-23T04:23:10;23.26;59.68
70695;DHT22;58269;52.246;21.104;2022-07-23T04:25:11;23.27;59.66
70695;DHT22;58269;52.246;21.104;2022-07-23T04:27:14;23.34;59.57
70695;DHT22;58269;52.246;21.104;2022-07-23T04:29:15;23.41;59.59
70695;DHT22;58269;52.246;21.104;2022-07-23T04:31:16;23.49;59.54
70695;DHT22;58269;52.246;21.104;2022-07-23T04:33:17;23.53;59.42
70695;DHT22;58269;52.246;21.104;2022-07-23T04:35:19;23.58;59.52
70695;DHT22;58269;52.246;21.104;2022-07-23T04:37:20;23.64;59.30
70695;DHT22;58269;52.246;21.104;2022-07-23T04:39:21;23.71;59.21
70695;DHT22;58269;52.246;21.104;2022-07-23T04:41:22;23.76;59.17
70695;DHT22;58269;52.246;21.104;2022-07-23T04:43:23;23.78;59.13
70695;DHT22;58269;52.246;21.104;2022-07-23T04:45:25;23.81;59.12
70695;DHT22;58269;52.246;21.104;2022-07-23T04:47:26;23.87;58.99
70695;DHT22;58269;52.246;21.104;2022-07-23T04:49:27;23.90;59.00
70695;DHT22;58269;52.246;21.104;2022-07-23T04:51:29;23.97;58.88
70695;DHT22;58269;52.246;21.104;2022-07-23T04:53:30;23.99;58.87
70695;DHT22;58269;52.246;21.104;2022-07-23T04:55:33;23.99;58.82
70695;DHT22;58269;52.246;21.104;2022-07-23T04:57:34;24.04;58.80
70695;DHT22;58269;52.246;21.104;2022-07-23T04:59:35;24.07;58.72
70695;DHT22;58269;52.246;21.104;2022-07-23T05:01:37;24.08;58.71
70695;DHT22;58269;52.246;21.104;2022-07-23T05:03:38;24.11;58.68
70695;DHT22;58269;52.246;21.104;2022-07-23T05:05:39;24.13;58.68
70695;DHT22;58269;52.246;21.104;2022-07-23T05:07:42;24.15;58.60
70695;DHT22;58269;52.246;21.104;2022-07-23T05:09:43;24.21;58.58
70695;DHT22;58269;52.246;21.104;2022-07-23T05:11:44;24.25;58.50
70695;DHT22;58269;52.246;21.104;2022-07-23T05:13:46;24.25;58.45
70695;DHT22;58269;52.246;21.104;2022-07-23T05:15:47;24.31;58.41
70695;DHT22;58269;52.246;21.104;2022-07-23T05:17:48;24.32;58.32
70695;DHT22;58269;52.246;21.104;2022-07-23T05:19:50;24.34;58.31
70695;DHT22;58269;52.246;21.104;2022-07-23T05:21:51;24.36;58.27
70695;DHT22;58269;52.246;21.104;2022-07-23T05:23:52;24.43;58.20
70695;DHT22;58269;52.246;21.104;2022-07-23T05:25:54;24.43;58.22
70695;DHT22;58269;52.246;21.104;2022-07-23T05:27:55;24.45;58.16
70695;DHT22;58269;52.246;21.104;2022-07-23T05:29:56;24.46;58.14
70695;DHT22;58269;52.246;21.104;2022-07-23T05:31:57;24.46;58.13
70695;DHT22;58269;52.246;21.104;2022-07-23T05:33:58;24.48;58.19
70695;DHT22;58269;52.246;21.104;2022-07-23T05:36:02;24.49;58.19
70695;DHT22;58269;52.246;21.104;2022-07-23T05:38:05;24.50;58.13
70695;DHT22;58269;52.246;21.104;2022-07-23T05:40:09;24.53;58.12
70695;DHT22;58269;52.246;21.104;2022-07-23T05:42:11;24.58;58.07
70695;DHT22;58269;52.246;21.104;2022-07-23T05:44:12;24.58;58.03
70695;DHT22;58269;52.246;21.104;2022-07-23T05:46:14;24.62;57.99
70695;DHT22;58269;52.246;21.104;2022-07-23T05:48:17;24.62;57.99
70695;DHT22;58269;52.246;21.104;2022-07-23T05:50:25;24.63;57.95
70695;DHT22;58269;52.246;21.104;2022-07-23T05:52:28;24.67;57.95
70695;DHT22;58269;52.246;21.104;2022-07-23T05:54:37;24.70;57.87
70695;DHT22;58269;52.246;21.104;2022-07-23T05:56:38;24.76;57.82
70695;DHT22;58269;52.246;21.104;2022-07-23T05:58:40;24.80;57.73
70695;DHT22;58269;52.246;21.104;2022-07-23T06:00:41;24.86;57.68
70695;DHT22;58269;52.246;21.104;2022-07-23T06:02:42;24.90;57.54
70695;DHT22;58269;52.246;21.104;2022-07-23T06:04:44;24.94;57.44
70695;DHT22;58269;52.246;21.104;2022-07-23T06:06:48;25.01;57.36
70695;DHT22;58269;52.246;21.104;2022-07-23T06:08:49;25.03;57.27
70695;DHT22;58269;52.246;21.104;2022-07-23T06:10:50;25.09;57.22
70695;DHT22;58269;52.246;21.104;2022-07-23T06:12:51;25.10;57.16
70695;DHT22;58269;52.246;21.104;2022-07-23T06:14:52;25.13;57.13
70695;DHT22;58269;52.246;21.104;2022-07-23T06:16:54;25.20;56.97
70695;DHT22;58269;52.246;21.104;2022-07-23T06:18:55;25.21;56.96
70695;DHT22;58269;52.246;21.104;2022-07-23T06:20:56;25.22;56.90
70695;DHT22;58269;52.246;21.104;2022-07-23T06:22:57;25.28;56.84
70695;DHT22;58269;52.246;21.104;2022-07-23T06:24:58;25.32;56.74
70695;DHT22;58269;52.246;21.104;2022-07-23T06:26:59;25.40;56.66
70695;DHT22;58269;52.246;21.104;2022-07-23T06:29:00;25.44;56.62
70695;DHT22;58269;52.246;21.104;2022-07-23T06:31:01;25.51;56.49
70695;DHT22;58269;52.246;21.104;2022-07-23T06:33:02;25.51;56.40
70695;DHT22;58269;52.246;21.104;2022-07-23T06:35:04;25.58;56.38
70695;DHT22;58269;52.246;21.104;2022-07-23T06:37:05;25.64;56.29
70695;DHT22;58269;52.246;21.104;2022-07-23T06:39:06;25.71;56.14
70695;DHT22;58269;52.246;21.104;2022-07-23T06:41:07;25.75;56.07
70695;DHT22;58269;52.246;21.104;2022-07-23T06:43:10;25.82;56.03
70695;DHT22;58269;52.246;21.104;2022-07-23T06:45:11;25.85;55.95
70695;DHT22;58269;52.246;21.104;2022-07-23T06:47:12;25.91;55.89
70695;DHT22;58269;52.246;21.104;2022-07-23T06:49:13;25.96;55.84
70695;DHT22;58269;52.246;21.104;2022-07-23T06:51:14;26.00;55.67
70695;DHT22;58269;52.246;21.104;2022-07-23T06:53:15;26.07;55.65
70695;DHT22;58269;52.246;21.104;2022-07-23T06:55:16;26.12;55.52
70695;DHT22;58269;52.246;21.104;2022-07-23T06:57:20;26.16;55.50
70695;DHT22;58269;52.246;21.104;2022-07-23T06:59:21;26.24;55.36
70695;DHT22;58269;52.246;21.104;2022-07-23T07:01:22;26.27;55.15
70695;DHT22;58269;52.246;21.104;2022-07-23T07:03:23;26.33;55.17
70695;DHT22;58269;52.246;21.104;2022-07-23T07:05:24;26.40;55.08
70695;DHT22;58269;52.246;21.104;2022-07-23T07:07:27;26.44;55.03
70695;DHT22;58269;52.246;21.104;2022-07-23T07:09:28;26.50;54.95
70695;DHT22;58269;52.246;21.104;2022-07-23T07:11:30;26.54;54.79
70695;DHT22;58269;52.246;21.104;2022-07-23T07:13:30;26.57;54.71
70695;DHT22;58269;52.246;21.104;2022-07-23T07:15:31;26.60;54.54
70695;DHT22;58269;52.246;21.104;2022-07-23T07:17:32;26.68;54.53
70695;DHT22;58269;52.246;21.104;2022-07-23T07:19:33;26.70;54.40
70695;DHT22;58269;52.246;21.104;2022-07-23T07:21:35;26.74;54.40
70695;DHT22;58269;52.246;21.104;2022-07-23T07:23:36;26.78;54.30
70695;DHT22;58269;52.246;21.104;2022-07-23T07:25:37;26.78;54.24
70695;DHT22;58269;52.246;21.104;2022-07-23T07:27:38;26.84;54.03
70695;DHT22;58269;52.246;21.104;2022-07-23T07:29:39;26.87;53.83
70695;DHT22;58269;52.246;21.104;2022-07-23T07:31:40;26.91;53.89
70695;DHT22;58269;52.246;21.104;2022-07-23T07:33:41;26.95;53.82
70695;DHT22;58269;52.246;21.104;2022-07-23T07:35:42;26.97;53.74
70695;DHT22;58269;52.246;21.104;2022-07-23T07:37:43;27.01;53.71
70695;DHT22;58269;52.246;21.104;2022-07-23T07:39:44;27.05;53.63
70695;DHT22;58269;52.246;21.104;2022-07-23T07:41:45;27.08;53.62
70695;DHT22;58269;52.246;21.104;2022-07-23T07:43:46;27.12;53.53
70695;DHT22;58269;52.246;21.104;2022-07-23T07:45:47;27.18;53.45
70695;DHT22;58269;52.246;21.104;2022-07-23T07:47:49;27.18;53.37
70695;DHT22;58269;52.246;21.104;2022-07-23T07:49:50;27.25;52.13
70695;DHT22;58269;52.246;21.104;2022-07-23T07:51:51;27.28;52.59
70695;DHT22;58269;52.246;21.104;2022-07-23T07:53:52;27.30;52.70
70695;DHT22;58269;52.246;21.104;2022-07-23T07:55:53;27.32;52.46
70695;DHT22;58269;52.246;21.104;2022-07-23T07:57:54;27.36;52.12
70695;DHT22;58269;52.246;21.104;2022-07-23T07:59:55;27.41;52.32
70695;DHT22;58269;52.246;21.104;2022-07-23T08:01:56;27.43;52.31
70695;DHT22;58269;52.246;21.104;2022-07-23T08:03:57;27.49;51.92
70695;DHT22;58269;52.246;21.104;2022-07-23T08:05:58;27.53;52.07
70695;DHT22;58269;52.246;21.104;2022-07-23T08:07:59;27.59;52.01
70695;DHT22;58269;52.246;21.104;2022-07-23T08:10:02;27.66;51.84
70695;DHT22;58269;52.246;21.104;2022-07-23T08:12:03;27.69;51.81
70695;DHT22;58269;52.246;21.104;2022-07-23T08:14:04;27.74;51.89
70695;DHT22;58269;52.246;21.104;2022-07-23T08:16:05;27.79;51.57
70695;DHT22;58269;52.246;21.104;2022-07-23T08:18:06;27.84;51.57
70695;DHT22;58269;52.246;21.104;2022-07-23T08:20:09;27.83;51.56
70695;DHT22;58269;52.246;21.104;2022-07-23T08:22:10;27.88;51.47
70695;DHT22;58269;52.246;21.104;2022-07-23T08:24:12;27.93;51.23
70695;DHT22;58269;52.246;21.104;2022-07-23T08:26:13;27.94;51.29
70695;DHT22;58269;52.246;21.104;2022-07-23T08:28:14;28.00;51.04
70695;DHT22;58269;52.246;21.104;2022-07-23T08:30:15;28.04;51.15
70695;DHT22;58269;52.246;21.104;2022-07-23T08:32:17;28.06;51.17
70695;DHT22;58269;52.246;21.104;2022-07-23T08:34:18;28.10;51.09
70695;DHT22;58269;52.246;21.104;2022-07-23T08:36:19;28.13;50.54
70695;DHT22;58269;52.246;21.104;2022-07-23T08:38:21;28.18;50.45
70695;DHT22;58269;52.246;21.104;2022-07-23T08:40:23;28.24;49.05
70695;DHT22;58269;52.246;21.104;2022-07-23T08:42:26;28.31;47.98
70695;DHT22;58269;52.246;21.104;2022-07-23T08:44:26;28.37;47.89
70695;DHT22;58269;52.246;21.104;2022-07-23T08:46:28;28.42;47.74
70695;DHT22;58269;52.246;21.104;2022-07-23T08:48:31;28.46;48.55
70695;DHT22;58269;52.246;21.104;2022-07-23T08:50:32;28.51;46.89
70695;DHT22;58269;52.246;21.104;2022-07-23T08:52:35;28.56;47.21
70695;DHT22;58269;52.246;21.104;2022-07-23T08:54:36;28.64;46.68
70695;DHT22;58269;52.246;21.104;2022-07-23T08:56:38;28.65;47.55
70695;DHT22;58269;52.246;21.104;2022-07-23T08:58:39;28.68;47.17
70695;DHT22;58269;52.246;21.104;2022-07-23T09:00:41;28.68;47.59
70695;DHT22;58269;52.246;21.104;2022-07-23T09:02:44;28.74;47.66
70695;DHT22;58269;52.246;21.104;2022-07-23T09:04:45;28.75;47.67
70695;DHT22;58269;52.246;21.104;2022-07-23T09:06:46;28.81;47.56
70695;DHT22;58269;52.246;21.104;2022-07-23T09:08:47;28.79;47.68
70695;DHT22;58269;52.246;21.104;2022-07-23T09:12:52;28.86;47.12
70695;DHT22;58269;52.246;21.104;2022-07-23T09:14:53;28.87;47.19
70695;DHT22;58269;52.246;21.104;2022-07-23T09:16:54;28.90;47.20
70695;DHT22;58269;52.246;21.104;2022-07-23T09:19:00;28.96;46.58
70695;DHT22;58269;52.246;21.104;2022-07-23T09:21:15;28.97;46.27
70695;DHT22;58269;52.246;21.104;2022-07-23T09:23:09;29.03;46.23
70695;DHT22;58269;52.246;21.104;2022-07-23T09:27:17;29.09;46.65
70695;DHT22;58269;52.246;21.104;2022-07-23T09:29:20;29.11;46.71
70695;DHT22;58269;52.246;21.104;2022-07-23T09:31:22;29.16;43.78
70695;DHT22;58269;52.246;21.104;2022-07-23T09:33:23;29.20;44.20
70695;DHT22;58269;52.246;21.104;2022-07-23T09:38:02;29.26;44.76
70695;DHT22;58269;52.246;21.104;2022-07-23T09:40:08;29.29;44.74
70695;DHT22;58269;52.246;21.104;2022-07-23T09:42:22;29.30;44.86
70695;DHT22;58269;52.246;21.104;2022-07-23T09:44:20;29.34;44.64
70695;DHT22;58269;52.246;21.104;2022-07-23T09:46:24;29.36;43.83
70695;DHT22;58269;52.246;21.104;2022-07-23T09:48:26;29.37;42.95
70695;DHT22;58269;52.246;21.104;2022-07-23T09:50:27;29.38;43.59
70695;DHT22;58269;52.246;21.104;2022-07-23T09:52:29;29.37;43.41
70695;DHT22;58269;52.246;21.104;2022-07-23T09:56:35;29.37;43.84
70695;DHT22;58269;52.246;21.104;2022-07-23T09:58:37;29.41;43.99
70695;DHT22;58269;52.246;21.104;2022-07-23T10:00:42;29.43;44.24
70695;DHT22;58269;52.246;21.104;2022-07-23T10:02:45;29.47;44.06
70695;DHT22;58269;52.246;21.104;2022-07-23T10:05:05;29.51;42.92
70695;DHT22;58269;52.246;21.104;2022-07-23T10:07:11;29.56;43.65
70695;DHT22;58269;52.246;21.104;2022-07-23T10:09:38;29.58;43.89
70695;DHT22;58269;52.246;21.104;2022-07-23T10:11:56;29.57;43.99
70695;DHT22;58269;52.246;21.104;2022-07-23T10:14:07;29.64;43.88
70695;DHT22;58269;52.246;21.104;2022-07-23T10:16:22;29.71;42.46
70695;DHT22;58269;52.246;21.104;2022-07-23T10:18:23;29.77;42.26
70695;DHT22;58269;52.246;21.104;2022-07-23T10:20:24;29.81;43.12
70695;DHT22;58269;52.246;21.104;2022-07-23T10:22:29;29.87;43.20
70695;DHT22;58269;52.246;21.104;2022-07-23T10:24:50;29.91;43.47
70695;DHT22;58269;52.246;21.104;2022-07-23T10:27:09;29.95;43.65
70695;DHT22;58269;52.246;21.104;2022-07-23T10:32:49;29.97;43.48
70695;DHT22;58269;52.246;21.104;2022-07-23T10:34:44;29.97;43.65
70695;DHT22;58269;52.246;21.104;2022-07-23T10:36:56;29.94;43.62
70695;DHT22;58269;52.246;21.104;2022-07-23T10:39:05;29.92;43.61
70695;DHT22;58269;52.246;21.104;2022-07-23T10:41:07;29.95;41.52
70695;DHT22;58269;52.246;21.104;2022-07-23T10:43:13;29.98;41.88
70695;DHT22;58269;52.246;21.104;2022-07-23T10:47:28;29.99;42.72
70695;DHT22;58269;52.246;21.104;2022-07-23T10:49:43;30.01;42.84
70695;DHT22;58269;52.246;21.104;2022-07-23T10:54:23;30.02;42.25
70695;DHT22;58269;52.246;21.104;2022-07-23T10:58:59;30.01;41.95
70695;DHT22;58269;52.246;21.104;2022-07-23T11:01:02;30.04;42.16
70695;DHT22;58269;52.246;21.104;2022-07-23T11:05:44;30.09;41.26
70695;DHT22;58269;52.246;21.104;2022-07-23T11:10:31;30.14;41.88
70695;DHT22;58269;52.246;21.104;2022-07-23T11:17:00;30.15;42.13
70695;DHT22;58269;52.246;21.104;2022-07-23T11:19:03;30.15;41.91
70695;DHT22;58269;52.246;21.104;2022-07-23T11:26:00;30.11;42.04
70695;DHT22;58269;52.246;21.104;2022-07-23T11:28:19;30.11;41.97
70695;DHT22;58269;52.246;21.104;2022-07-23T11:32:33;30.16;41.62
70695;DHT22;58269;52.246;21.104;2022-07-23T11:34:41;30.19;41.42
70695;DHT22;58269;52.246;21.104;2022-07-23T11:36:48;30.22;40.53
70695;DHT22;58269;52.246;21.104;2022-07-23T11:38:50;30.23;41.07
70695;DHT22;58269;52.246;21.104;2022-07-23T11:40:54;30.30;41.27
70695;DHT22;58269;52.246;21.104;2022-07-23T11:43:00;30.36;40.31
70695;DHT22;58269;52.246;21.104;2022-07-23T11:45:03;30.43;40.32
70695;DHT22;58269;52.246;21.104;2022-07-23T11:47:07;30.50;40.66
70695;DHT22;58269;52.246;21.104;2022-07-23T11:49:08;30.52;40.76
70695;DHT22;58269;52.246;21.104;2022-07-23T11:51:09;30.49;40.98
70695;DHT22;58269;52.246;21.104;2022-07-23T11:53:10;30.48;40.85
70695;DHT22;58269;52.246;21.104;2022-07-23T11:55:12;30.48;40.83
70695;DHT22;58269;52.246;21.104;2022-07-23T11:57:13;30.48;40.40
70695;DHT22;58269;52.246;21.104;2022-07-23T11:59:15;30.50;40.75
70695;DHT22;58269;52.246;21.104;2022-07-23T12:01:16;30.50;40.87
70695;DHT22;58269;52.246;21.104;2022-07-23T12:03:17;30.50;40.57
70695;DHT22;58269;52.246;21.104;2022-07-23T12:05:21;30.53;40.81
70695;DHT22;58269;52.246;21.104;2022-07-23T12:07:37;30.58;40.99
70695;DHT22;58269;52.246;21.104;2022-07-23T12:09:38;30.62;40.91
70695;DHT22;58269;52.246;21.104;2022-07-23T12:11:56;30.65;40.99
70695;DHT22;58269;52.246;21.104;2022-07-23T12:13:57;30.63;40.82
70695;DHT22;58269;52.246;21.104;2022-07-23T12:15:58;30.65;41.07
70695;DHT22;58269;52.246;21.104;2022-07-23T12:18:00;30.63;40.96
70695;DHT22;58269;52.246;21.104;2022-07-23T12:20:04;30.66;41.06
70695;DHT22;58269;52.246;21.104;2022-07-23T12:22:06;30.70;41.07
70695;DHT22;58269;52.246;21.104;2022-07-23T12:24:07;30.69;40.83
70695;DHT22;58269;52.246;21.104;2022-07-23T12:26:09;30.69;40.90
70695;DHT22;58269;52.246;21.104;2022-07-23T12:28:18;30.67;40.69
70695;DHT22;58269;52.246;21.104;2022-07-23T12:30:24;30.65;40.77
70695;DHT22;58269;52.246;21.104;2022-07-23T12:32:28;30.65;40.64
70695;DHT22;58269;52.246;21.104;2022-07-23T12:34:29;30.65;40.52
70695;DHT22;58269;52.246;21.104;2022-07-23T12:36:38;30.66;40.70
70695;DHT22;58269;52.246;21.104;2022-07-23T12:38:43;30.63;40.67
70695;DHT22;58269;52.246;21.104;2022-07-23T12:41:00;30.63;40.78
70695;DHT22;58269;52.246;21.104;2022-07-23T12:43:03;30.65;40.77
70695;DHT22;58269;52.246;21.104;2022-07-23T12:45:10;30.71;40.37
70695;DHT22;58269;52.246;21.104;2022-07-23T12:47:12;30.77;40.09
70695;DHT22;58269;52.246;21.104;2022-07-23T12:49:12;30.83;40.46
70695;DHT22;58269;52.246;21.104;2022-07-23T12:53:23;30.98;40.64
70695;DHT22;58269;52.246;21.104;2022-07-23T12:55:27;31.07;39.91
70695;DHT22;58269;52.246;21.104;2022-07-23T12:57:47;31.11;40.28
70695;DHT22;58269;52.246;21.104;2022-07-23T12:59:48;31.18;39.42
70695;DHT22;58269;52.246;21.104;2022-07-23T13:01:56;31.20;39.88
70695;DHT22;58269;52.246;21.104;2022-07-23T13:06:05;31.38;39.98
70695;DHT22;58269;52.246;21.104;2022-07-23T13:08:07;31.49;40.10
70695;DHT22;58269;52.246;21.104;2022-07-23T13:10:08;31.59;40.12
70695;DHT22;58269;52.246;21.104;2022-07-23T13:12:09;31.67;40.12
70695;DHT22;58269;52.246;21.104;2022-07-23T13:14:10;31.73;40.11
70695;DHT22;58269;52.246;21.104;2022-07-23T13:16:11;31.78;40.06
70695;DHT22;58269;52.246;21.104;2022-07-23T13:18:12;31.83;39.95
70695;DHT22;58269;52.246;21.104;2022-07-23T13:20:13;31.86;39.98
70695;DHT22;58269;52.246;21.104;2022-07-23T13:22:14;31.83;39.98
70695;DHT22;58269;52.246;21.104;2022-07-23T13:24:15;31.85;39.87